Airfield :
LOGIN :

Register | Disclaimer

   EN    FR    IT 

 










Legend :    VFR   Marginal VFR   IFR   Intensive IFR   Very Intensive IFR
Visi :
Ceiling :
>= 8 km
>= 3000ft
5 to 8 km
1000 to 3000 ft
1500m to 5 km
500 to 1000 ft
800 to 1500m
200 to 500 ft
< 800m
< 200 ft
Symbols :   Thunderstorms  Fog  Heavy snow  Heavy precipitations  Wind > 20 kt
SIGMETs :     Misc.  Thunderstorms  Icing  Turbulence  Mountain Waves  Volcanic Ashes







- Airport Elevation : 154 ft
- IATA code : SZZ


EPSC - Szczecin Goleniow

CURRENT METAR :
  • 170730Z 13006KT 100V160 9999 FEW008 SCT031 19/17 Q1021

EXPIRED METARs :
  • 170700Z 13008KT 9999 FEW029 18/16 Q1021
  • 170630Z 12006KT 9999 FEW034 17/16 Q1021
  • 170600Z 13005KT 8000 NSC 17/16 Q1021
  • 170530Z 12005KT 5000 BR NSC 15/15 Q1021
  • 170500Z 12003KT 5000 BR NSC 14/14 Q1021

TAF TAF EPSC
Valid from the 17 at 06:00 until the 18 at 06:00 UTC


170530Z 1706/1806 VRB03KT 7000 SCT025
PROB40 1706/1708 BKN006
PROB40 1706/1707 0800 FG BKN002
BECMG 1709/1711 15010KT
TEMPO 1718/1806 SHRA BKN020CB
PROB40 1800/1806 4000 -RA BR BKN005
No reported NOTAMs for that airfield.



MET'MAP, your aeronautical weather chart ! - Copyright ORBIFLY December 2007 - Disclaimer

ORBIFLY MET'MAP TEAM :

Programming & Development : Alexandra Zaïnal
Concept & Development : Baudouin d'Aumeries
Co-Development & Prog : Marc-Olivier Méhu
Technical & hardware support : Manuel Goepfert

Contact : metmap@orbifly.com




SOURCES & CREDITS :

   NOAA